sensor_id;sensor_type;location;lat;lon;timestamp;pressure;altitude;pressure_sealevel;temperature;humidity
43147;BME280;28752;48.266;7.402;2022-12-18T00:04:16;100552.94;;;-7.14;94.07
43147;BME280;28752;48.266;7.402;2022-12-18T00:06:43;100549.47;;;-7.02;93.95
43147;BME280;28752;48.266;7.402;2022-12-18T00:09:10;100548.69;;;-7.13;93.93
43147;BME280;28752;48.266;7.402;2022-12-18T00:11:35;100545.25;;;-7.12;93.66
43147;BME280;28752;48.266;7.402;2022-12-18T00:14:00;100553.78;;;-7.05;93.72
43147;BME280;28752;48.266;7.402;2022-12-18T00:16:27;100558.91;;;-6.99;93.04
43147;BME280;28752;48.266;7.402;2022-12-18T00:18:55;100562.41;;;-7.17;93.42
43147;BME280;28752;48.266;7.402;2022-12-18T00:21:21;100571.81;;;-7.07;93.56
43147;BME280;28752;48.266;7.402;2022-12-18T00:23:48;100567.53;;;-7.12;93.23
43147;BME280;28752;48.266;7.402;2022-12-18T00:26:20;100544.38;;;-7.16;92.77
43147;BME280;28752;48.266;7.402;2022-12-18T00:28:48;100564.91;;;-6.99;92.33
43147;BME280;28752;48.266;7.402;2022-12-18T00:31:17;100565.81;;;-7.06;91.74
43147;BME280;28752;48.266;7.402;2022-12-18T00:33:43;100561.59;;;-7.24;92.31
43147;BME280;28752;48.266;7.402;2022-12-18T00:36:14;100554.78;;;-7.34;93.40
43147;BME280;28752;48.266;7.402;2022-12-18T00:38:40;100564.13;;;-7.16;93.60
43147;BME280;28752;48.266;7.402;2022-12-18T00:41:06;100567.59;;;-7.20;92.92
43147;BME280;28752;48.266;7.402;2022-12-18T00:43:32;100565.88;;;-7.24;92.65
43147;BME280;28752;48.266;7.402;2022-12-18T00:45:57;100561.59;;;-7.25;92.31
43147;BME280;28752;48.266;7.402;2022-12-18T00:48:24;100552.13;;;-7.17;91.47
43147;BME280;28752;48.266;7.402;2022-12-18T00:50:49;100542.72;;;-7.29;91.56
43147;BME280;28752;48.266;7.402;2022-12-18T00:53:15;100542.72;;;-7.24;91.85
43147;BME280;28752;48.266;7.402;2022-12-18T00:55:41;100556.38;;;-7.07;91.66
43147;BME280;28752;48.266;7.402;2022-12-18T00:58:07;100561.53;;;-7.11;91.68
43147;BME280;28752;48.266;7.402;2022-12-18T01:00:33;100555.59;;;-7.29;92.01
43147;BME280;28752;48.266;7.402;2022-12-18T01:02:59;100579.59;;;-7.16;91.70
43147;BME280;28752;48.266;7.402;2022-12-18T01:05:24;100582.19;;;-7.25;92.07
43147;BME280;28752;48.266;7.402;2022-12-18T01:07:50;100568.47;;;-7.27;92.04
43147;BME280;28752;48.266;7.402;2022-12-18T01:10:15;100581.28;;;-7.12;92.43
43147;BME280;28752;48.266;7.402;2022-12-18T01:12:41;100575.22;;;-7.03;92.26
43147;BME280;28752;48.266;7.402;2022-12-18T01:15:07;100577.00;;;-7.16;92.82
43147;BME280;28752;48.266;7.402;2022-12-18T01:17:33;100580.41;;;-7.12;93.07
43147;BME280;28752;48.266;7.402;2022-12-18T01:19:58;100576.94;;;-7.02;93.27
43147;BME280;28752;48.266;7.402;2022-12-18T01:22:23;100580.38;;;-7.06;93.44
43147;BME280;28752;48.266;7.402;2022-12-18T01:24:49;100582.19;;;-7.21;94.37
43147;BME280;28752;48.266;7.402;2022-12-18T01:27:14;100573.56;;;-7.09;94.41
43147;BME280;28752;48.266;7.402;2022-12-18T01:29:40;100587.28;;;-7.11;94.30
43147;BME280;28752;48.266;7.402;2022-12-18T01:32:05;100566.72;;;-7.18;94.82
43147;BME280;28752;48.266;7.402;2022-12-18T01:34:30;100554.69;;;-7.16;94.93
43147;BME280;28752;48.266;7.402;2022-12-18T01:36:56;100572.69;;;-7.12;94.55
43147;BME280;28752;48.266;7.402;2022-12-18T01:39:21;100595.81;;;-6.99;94.90
43147;BME280;28752;48.266;7.402;2022-12-18T01:41:46;100580.34;;;-6.97;93.90
43147;BME280;28752;48.266;7.402;2022-12-18T01:49:52;100596.69;;;-7.01;94.25
43147;BME280;28752;48.266;7.402;2022-12-18T01:52:18;100588.13;;;-7.11;94.21
43147;BME280;28752;48.266;7.402;2022-12-18T01:54:45;100570.22;;;-7.34;94.69
43147;BME280;28752;48.266;7.402;2022-12-18T01:57:11;100595.06;;;-7.24;94.99
43147;BME280;28752;48.266;7.402;2022-12-18T01:59:38;100605.34;;;-7.24;95.14
43147;BME280;28752;48.266;7.402;2022-12-18T02:02:05;100601.00;;;-7.08;94.46
43147;BME280;28752;48.266;7.402;2022-12-18T02:04:31;100589.88;;;-7.15;94.22
43147;BME280;28752;48.266;7.402;2022-12-18T02:09:39;100592.50;;;-7.28;95.29
43147;BME280;28752;48.266;7.402;2022-12-18T02:12:19;100598.47;;;-7.23;95.64
43147;BME280;28752;48.266;7.402;2022-12-18T02:17:20;100601.81;;;-6.98;94.84
43147;BME280;28752;48.266;7.402;2022-12-18T02:20:14;100592.31;;;-6.88;94.58
43147;BME280;28752;48.266;7.402;2022-12-18T02:22:58;100582.03;;;-6.91;94.74
43147;BME280;28752;48.266;7.402;2022-12-18T02:25:40;100585.44;;;-6.83;94.70
43147;BME280;28752;48.266;7.402;2022-12-18T02:28:12;100579.31;;;-6.67;93.85
43147;BME280;28752;48.266;7.402;2022-12-18T02:30:41;100587.09;;;-6.74;94.13
43147;BME280;28752;48.266;7.402;2022-12-18T02:33:08;100586.19;;;-6.64;93.38
43147;BME280;28752;48.266;7.402;2022-12-18T02:35:36;100575.97;;;-6.76;93.26
43147;BME280;28752;48.266;7.402;2022-12-18T02:38:04;100593.97;;;-6.73;93.61
43147;BME280;28752;48.266;7.402;2022-12-18T02:40:30;100598.31;;;-6.85;94.04
43147;BME280;28752;48.266;7.402;2022-12-18T02:42:55;100605.19;;;-6.82;94.45
43147;BME280;28752;48.266;7.402;2022-12-18T02:45:27;100594.06;;;-6.87;94.29
43147;BME280;28752;48.266;7.402;2022-12-18T02:47:52;100588.88;;;-6.83;94.43
43147;BME280;28752;48.266;7.402;2022-12-18T02:50:38;100598.31;;;-6.80;94.17
43147;BME280;28752;48.266;7.402;2022-12-18T02:53:24;100594.94;;;-6.96;93.99
43147;BME280;28752;48.266;7.402;2022-12-18T02:56:00;100566.66;;;-7.02;93.16
43147;BME280;28752;48.266;7.402;2022-12-18T02:58:44;100586.38;;;-7.00;92.13
43147;BME280;28752;48.266;7.402;2022-12-18T03:01:33;100589.78;;;-6.93;91.64
43147;BME280;28752;48.266;7.402;2022-12-18T03:04:32;100588.09;;;-7.05;89.82
43147;BME280;28752;48.266;7.402;2022-12-18T03:06:57;100585.50;;;-7.02;89.81
43147;BME280;28752;48.266;7.402;2022-12-18T03:09:31;100576.13;;;-7.18;89.74
43147;BME280;28752;48.266;7.402;2022-12-18T03:12:23;100589.81;;;-7.04;89.46
43147;BME280;28752;48.266;7.402;2022-12-18T03:15:02;100589.81;;;-7.02;89.87
43147;BME280;28752;48.266;7.402;2022-12-18T03:17:31;100598.38;;;-6.99;89.91
43147;BME280;28752;48.266;7.402;2022-12-18T03:20:02;100595.78;;;-6.96;89.06
43147;BME280;28752;48.266;7.402;2022-12-18T03:22:30;100602.66;;;-6.96;89.42
43147;BME280;28752;48.266;7.402;2022-12-18T03:24:58;100596.72;;;-7.09;88.68
43147;BME280;28752;48.266;7.402;2022-12-18T03:27:26;100595.00;;;-7.10;88.60
43147;BME280;28752;48.266;7.402;2022-12-18T03:30:02;100584.66;;;-7.02;88.77
43147;BME280;28752;48.266;7.402;2022-12-18T03:32:58;100582.97;;;-7.08;89.67
43147;BME280;28752;48.266;7.402;2022-12-18T03:35:28;100574.38;;;-7.05;89.98
43147;BME280;28752;48.266;7.402;2022-12-18T03:37:55;100577.75;;;-6.94;91.00
43147;BME280;28752;48.266;7.402;2022-12-18T03:40:27;100588.00;;;-6.83;91.79
43147;BME280;28752;48.266;7.402;2022-12-18T03:43:03;100581.22;;;-6.98;92.68
43147;BME280;28752;48.266;7.402;2022-12-18T03:45:37;100588.91;;;-6.87;93.09
43147;BME280;28752;48.266;7.402;2022-12-18T03:48:14;100586.31;;;-6.84;93.11
43147;BME280;28752;48.266;7.402;2022-12-18T03:50:56;100584.53;;;-6.78;92.62
43147;BME280;28752;48.266;7.402;2022-12-18T03:56:04;100589.66;;;-6.70;91.99
43147;BME280;28752;48.266;7.402;2022-12-18T03:58:31;100593.91;;;-6.63;91.04
43147;BME280;28752;48.266;7.402;2022-12-18T04:01:01;100594.75;;;-6.61;90.34
43147;BME280;28752;48.266;7.402;2022-12-18T04:03:29;100575.13;;;-6.79;90.83
43147;BME280;28752;48.266;7.402;2022-12-18T04:05:58;100578.53;;;-6.76;91.14
43147;BME280;28752;48.266;7.402;2022-12-18T04:08:25;100587.97;;;-6.74;90.78
43147;BME280;28752;48.266;7.402;2022-12-18T04:10:51;100588.00;;;-6.80;91.08
43147;BME280;28752;48.266;7.402;2022-12-18T04:13:32;100575.16;;;-6.92;91.01
43147;BME280;28752;48.266;7.402;2022-12-18T04:15:59;100569.97;;;-6.83;90.41
43147;BME280;28752;48.266;7.402;2022-12-18T04:18:25;100578.59;;;-6.87;90.31
43147;BME280;28752;48.266;7.402;2022-12-18T04:20:50;100574.22;;;-6.74;89.78
43147;BME280;28752;48.266;7.402;2022-12-18T04:23:15;100582.84;;;-6.83;89.47
43147;BME280;28752;48.266;7.402;2022-12-18T04:25:41;100590.59;;;-6.88;89.67
43147;BME280;28752;48.266;7.402;2022-12-18T04:28:06;100584.63;;;-6.93;89.74
43147;BME280;28752;48.266;7.402;2022-12-18T04:30:31;100568.41;;;-7.12;90.50
43147;BME280;28752;48.266;7.402;2022-12-18T04:32:57;100596.59;;;-6.80;90.22
43147;BME280;28752;48.266;7.402;2022-12-18T04:35:22;100594.91;;;-6.91;91.03
43147;BME280;28752;48.266;7.402;2022-12-18T04:37:48;100590.63;;;-6.94;90.40
43147;BME280;28752;48.266;7.402;2022-12-18T04:40:13;100595.81;;;-7.05;90.07
43147;BME280;28752;48.266;7.402;2022-12-18T04:42:39;100594.13;;;-7.04;88.36
43147;BME280;28752;48.266;7.402;2022-12-18T04:45:06;100588.19;;;-7.26;88.52
43147;BME280;28752;48.266;7.402;2022-12-18T04:47:32;100589.91;;;-7.19;88.36
43147;BME280;28752;48.266;7.402;2022-12-18T04:49:57;100585.63;;;-7.25;88.19
43147;BME280;28752;48.266;7.402;2022-12-18T04:52:23;100583.03;;;-7.23;88.62
43147;BME280;28752;48.266;7.402;2022-12-18T04:54:48;100586.41;;;-7.15;89.37
43147;BME280;28752;48.266;7.402;2022-12-18T04:57:13;100563.28;;;-7.24;90.08
43147;BME280;28752;48.266;7.402;2022-12-18T04:59:39;100576.97;;;-7.07;90.13
43147;BME280;28752;48.266;7.402;2022-12-18T05:02:05;100572.59;;;-6.92;90.48
43147;BME280;28752;48.266;7.402;2022-12-18T05:04:30;100565.78;;;-7.00;90.80
43147;BME280;28752;48.266;7.402;2022-12-18T05:06:55;100569.34;;;-7.27;91.28
43147;BME280;28752;48.266;7.402;2022-12-18T05:09:21;100578.69;;;-7.15;91.64
43147;BME280;28752;48.266;7.402;2022-12-18T05:11:46;100580.38;;;-7.03;91.47
43147;BME280;28752;48.266;7.402;2022-12-18T05:14:12;100564.16;;;-7.18;91.36
43147;BME280;28752;48.266;7.402;2022-12-18T05:16:37;100569.25;;;-7.11;91.27
43147;BME280;28752;48.266;7.402;2022-12-18T05:19:02;100574.41;;;-7.11;91.28
43147;BME280;28752;48.266;7.402;2022-12-18T05:21:28;100564.97;;;-7.16;90.99
43147;BME280;28752;48.266;7.402;2022-12-18T05:23:53;100559.84;;;-7.17;91.34
43147;BME280;28752;48.266;7.402;2022-12-18T05:26:19;100566.75;;;-7.22;92.20
43147;BME280;28752;48.266;7.402;2022-12-18T05:28:44;100555.59;;;-7.27;92.76
43147;BME280;28752;48.266;7.402;2022-12-18T05:31:11;100557.28;;;-7.23;92.08
43147;BME280;28752;48.266;7.402;2022-12-18T05:33:36;100565.03;;;-7.31;92.89
43147;BME280;28752;48.266;7.402;2022-12-18T05:36:04;100581.28;;;-7.17;92.62
43147;BME280;28752;48.266;7.402;2022-12-18T05:38:32;100571.94;;;-7.33;92.99
43147;BME280;28752;48.266;7.402;2022-12-18T05:40:58;100571.91;;;-7.24;93.19
43147;BME280;28752;48.266;7.402;2022-12-18T05:43:25;100577.06;;;-7.25;93.27
43147;BME280;28752;48.266;7.402;2022-12-18T05:45:51;100588.16;;;-7.17;93.49
43147;BME280;28752;48.266;7.402;2022-12-18T05:48:16;100588.97;;;-7.03;92.81
43147;BME280;28752;48.266;7.402;2022-12-18T05:50:43;100587.34;;;-7.24;91.93
43147;BME280;28752;48.266;7.402;2022-12-18T05:53:14;100589.94;;;-7.28;92.08
43147;BME280;28752;48.266;7.402;2022-12-18T05:55:40;100586.47;;;-7.30;92.20
43147;BME280;28752;48.266;7.402;2022-12-18T05:58:07;100591.63;;;-7.27;92.27
43147;BME280;28752;48.266;7.402;2022-12-18T06:00:36;100580.47;;;-7.23;92.28
43147;BME280;28752;48.266;7.402;2022-12-18T06:03:05;100566.78;;;-7.44;91.51
43147;BME280;28752;48.266;7.402;2022-12-18T06:05:38;100600.28;;;-7.42;91.56
43147;BME280;28752;48.266;7.402;2022-12-18T06:08:03;100569.38;;;-7.47;91.50
43147;BME280;28752;48.266;7.402;2022-12-18T06:10:29;100586.50;;;-7.34;91.21
43147;BME280;28752;48.266;7.402;2022-12-18T06:12:55;100588.19;;;-7.28;90.96
43147;BME280;28752;48.266;7.402;2022-12-18T06:15:20;100581.38;;;-7.40;91.41
43147;BME280;28752;48.266;7.402;2022-12-18T06:17:45;100598.50;;;-7.33;91.67
43147;BME280;28752;48.266;7.402;2022-12-18T06:20:11;100610.53;;;-7.50;92.04
43147;BME280;28752;48.266;7.402;2022-12-18T06:22:36;100612.25;;;-7.37;92.15
43147;BME280;28752;48.266;7.402;2022-12-18T06:25:02;100619.94;;;-7.34;91.87
43147;BME280;28752;48.266;7.402;2022-12-18T06:27:27;100621.69;;;-7.34;92.36
43147;BME280;28752;48.266;7.402;2022-12-18T06:29:53;100604.50;;;-7.37;92.16
43147;BME280;28752;48.266;7.402;2022-12-18T06:32:18;100619.06;;;-7.20;91.54
43147;BME280;28752;48.266;7.402;2022-12-18T06:34:43;100615.69;;;-7.44;92.22
43147;BME280;28752;48.266;7.402;2022-12-18T06:37:09;100637.94;;;-7.21;92.21
43147;BME280;28752;48.266;7.402;2022-12-18T06:39:34;100630.19;;;-7.15;91.80
43147;BME280;28752;48.266;7.402;2022-12-18T06:41:59;100633.66;;;-7.19;91.65
43147;BME280;28752;48.266;7.402;2022-12-18T06:44:25;100624.22;;;-7.23;91.84
43147;BME280;28752;48.266;7.402;2022-12-18T06:46:50;100631.13;;;-7.39;92.76
43147;BME280;28752;48.266;7.402;2022-12-18T06:49:15;100638.81;;;-7.27;93.19
43147;BME280;28752;48.266;7.402;2022-12-18T06:51:41;100626.00;;;-7.39;93.99
43147;BME280;28752;48.266;7.402;2022-12-18T06:54:07;100637.13;;;-7.34;94.12
43147;BME280;28752;48.266;7.402;2022-12-18T06:56:32;100634.53;;;-7.34;94.84
43147;BME280;28752;48.266;7.402;2022-12-18T06:58:58;100631.94;;;-7.28;94.63
43147;BME280;28752;48.266;7.402;2022-12-18T07:01:23;100639.66;;;-7.22;94.82
43147;BME280;28752;48.266;7.402;2022-12-18T07:03:54;100640.50;;;-7.09;94.51
43147;BME280;28752;48.266;7.402;2022-12-18T07:06:23;100639.59;;;-7.00;94.56
43147;BME280;28752;48.266;7.402;2022-12-18T07:08:49;100648.19;;;-7.00;93.99
43147;BME280;28752;48.266;7.402;2022-12-18T07:11:15;100658.47;;;-6.97;93.75
43147;BME280;28752;48.266;7.402;2022-12-18T07:13:41;100662.78;;;-7.08;94.28
43147;BME280;28752;48.266;7.402;2022-12-18T07:16:12;100660.19;;;-7.03;94.68
43147;BME280;28752;48.266;7.402;2022-12-18T07:18:38;100655.88;;;-6.90;94.67
43147;BME280;28752;48.266;7.402;2022-12-18T07:21:18;100673.09;;;-7.11;91.49
43147;BME280;28752;48.266;7.402;2022-12-18T07:23:44;100671.38;;;-7.20;90.61
43147;BME280;28752;48.266;7.402;2022-12-18T07:26:14;100664.56;;;-7.32;90.27
43147;BME280;28752;48.266;7.402;2022-12-18T07:28:41;100666.25;;;-7.26;90.41
43147;BME280;28752;48.266;7.402;2022-12-18T07:31:09;100676.53;;;-7.21;89.71
43147;BME280;28752;48.266;7.402;2022-12-18T07:33:35;100660.31;;;-7.45;89.64
43147;BME280;28752;48.266;7.402;2022-12-18T07:36:02;100673.97;;;-7.21;89.61
43147;BME280;28752;48.266;7.402;2022-12-18T07:38:30;100673.13;;;-7.23;88.28
43147;BME280;28752;48.266;7.402;2022-12-18T07:41:07;100682.59;;;-7.52;88.83
43147;BME280;28752;48.266;7.402;2022-12-18T07:43:33;100676.59;;;-7.63;88.72
43147;BME280;28752;48.266;7.402;2022-12-18T07:45:59;100692.88;;;-7.65;89.75
43147;BME280;28752;48.266;7.402;2022-12-18T07:48:25;100686.91;;;-7.66;90.06
43147;BME280;28752;48.266;7.402;2022-12-18T07:50:51;100682.59;;;-7.56;89.99
43147;BME280;28752;48.266;7.402;2022-12-18T07:53:16;100666.31;;;-7.57;89.74
43147;BME280;28752;48.266;7.402;2022-12-18T07:55:42;100686.88;;;-7.34;89.25
43147;BME280;28752;48.266;7.402;2022-12-18T07:58:08;100686.03;;;-7.46;89.62
43147;BME280;28752;48.266;7.402;2022-12-18T08:00:34;100698.88;;;-7.34;89.40
43147;BME280;28752;48.266;7.402;2022-12-18T08:03:00;100703.19;;;-7.35;89.51
43147;BME280;28752;48.266;7.402;2022-12-18T08:05:26;100686.88;;;-7.34;88.04
43147;BME280;28752;48.266;7.402;2022-12-18T08:07:52;100704.03;;;-7.34;87.69
43147;BME280;28752;48.266;7.402;2022-12-18T08:10:17;100704.03;;;-7.31;87.56
43147;BME280;28752;48.266;7.402;2022-12-18T08:12:43;100692.03;;;-7.47;88.08
43147;BME280;28752;48.266;7.402;2022-12-18T08:15:08;100690.31;;;-7.36;88.78
43147;BME280;28752;48.266;7.402;2022-12-18T08:17:34;100679.13;;;-7.27;88.59
43147;BME280;28752;48.266;7.402;2022-12-18T08:19:59;100694.56;;;-7.29;89.29
43147;BME280;28752;48.266;7.402;2022-12-18T08:22:24;100687.72;;;-7.24;88.83
43147;BME280;28752;48.266;7.402;2022-12-18T08:24:50;100689.41;;;-7.07;88.31
43147;BME280;28752;48.266;7.402;2022-12-18T08:27:15;100680.78;;;-7.02;87.48
43147;BME280;28752;48.266;7.402;2022-12-18T08:29:41;100684.25;;;-7.06;87.61
43147;BME280;28752;48.266;7.402;2022-12-18T08:32:06;100692.81;;;-6.98;87.08
43147;BME280;28752;48.266;7.402;2022-12-18T08:34:32;100679.03;;;-6.89;87.19
43147;BME280;28752;48.266;7.402;2022-12-18T08:36:57;100678.19;;;-6.92;86.82
43147;BME280;28752;48.266;7.402;2022-12-18T08:39:23;100681.66;;;-6.98;86.50
43147;BME280;28752;48.266;7.402;2022-12-18T08:41:48;100667.91;;;-6.99;86.54
43147;BME280;28752;48.266;7.402;2022-12-18T08:44:33;100676.53;;;-7.07;87.18
43147;BME280;28752;48.266;7.402;2022-12-18T08:47:06;100661.91;;;-7.01;87.55
43147;BME280;28752;48.266;7.402;2022-12-18T08:49:31;100649.03;;;-7.01;87.17
43147;BME280;28752;48.266;7.402;2022-12-18T08:51:57;100631.88;;;-7.09;87.17
43147;BME280;28752;48.266;7.402;2022-12-18T08:54:23;100654.97;;;-6.75;85.95
43147;BME280;28752;48.266;7.402;2022-12-18T08:56:49;100624.97;;;-6.92;85.21
43147;BME280;28752;48.266;7.402;2022-12-18T08:59:15;100650.72;;;-6.93;86.70
43147;BME280;28752;48.266;7.402;2022-12-18T09:01:41;100635.22;;;-6.81;85.45
43147;BME280;28752;48.266;7.402;2022-12-18T09:04:08;100656.63;;;-6.70;85.88
43147;BME280;28752;48.266;7.402;2022-12-18T09:06:34;100660.13;;;-6.77;85.99
43147;BME280;28752;48.266;7.402;2022-12-18T09:09:01;100648.91;;;-6.73;85.84
43147;BME280;28752;48.266;7.402;2022-12-18T09:11:27;100643.66;;;-6.51;85.00
43147;BME280;28752;48.266;7.402;2022-12-18T09:13:54;100660.81;;;-6.49;85.35
43147;BME280;28752;48.266;7.402;2022-12-18T09:16:21;100665.03;;;-6.34;85.06
43147;BME280;28752;48.266;7.402;2022-12-18T09:18:47;100655.59;;;-6.38;84.67
43147;BME280;28752;48.266;7.402;2022-12-18T09:21:17;100665.81;;;-6.21;84.32
43147;BME280;28752;48.266;7.402;2022-12-18T09:23:43;100657.34;;;-6.38;84.95
43147;BME280;28752;48.266;7.402;2022-12-18T09:26:09;100666.72;;;-6.28;86.44
43147;BME280;28752;48.266;7.402;2022-12-18T09:28:34;100656.38;;;-6.20;85.92
43147;BME280;28752;48.266;7.402;2022-12-18T09:31:04;100678.63;;;-6.05;86.88
43147;BME280;28752;48.266;7.402;2022-12-18T09:33:31;100670.84;;;-5.98;86.41
43147;BME280;28752;48.266;7.402;2022-12-18T09:35:56;100678.34;;;-5.73;87.55
43147;BME280;28752;48.266;7.402;2022-12-18T09:38:22;100660.16;;;-5.58;89.04
43147;BME280;28752;48.266;7.402;2022-12-18T09:40:52;100675.44;;;-5.36;89.84
43147;BME280;28752;48.266;7.402;2022-12-18T09:43:22;100672.97;;;-5.48;87.57
43147;BME280;28752;48.266;7.402;2022-12-18T09:45:55;100660.94;;;-5.48;89.88
43147;BME280;28752;48.266;7.402;2022-12-18T09:48:26;100651.19;;;-5.23;90.21
43147;BME280;28752;48.266;7.402;2022-12-18T09:50:59;100671.72;;;-5.09;90.50
43147;BME280;28752;48.266;7.402;2022-12-18T09:53:30;100666.63;;;-5.17;91.13
43147;BME280;28752;48.266;7.402;2022-12-18T09:55:57;100654.50;;;-5.08;91.30
43147;BME280;28752;48.266;7.402;2022-12-18T10:00:57;100668.66;;;-5.45;84.57
43147;BME280;28752;48.266;7.402;2022-12-18T10:03:23;100671.78;;;-5.15;83.94
43147;BME280;28752;48.266;7.402;2022-12-18T10:11:49;100644.00;;;-4.94;83.83
43147;BME280;28752;48.266;7.402;2022-12-18T10:14:46;100652.34;;;-4.72;85.13
43147;BME280;28752;48.266;7.402;2022-12-18T10:20:27;100657.97;;;-4.39;86.38
43147;BME280;28752;48.266;7.402;2022-12-18T10:23:13;100639.88;;;-4.41;85.63
43147;BME280;28752;48.266;7.402;2022-12-18T10:26:11;100646.69;;;-4.35;84.70
43147;BME280;28752;48.266;7.402;2022-12-18T10:28:39;100664.66;;;-4.26;84.53
43147;BME280;28752;48.266;7.402;2022-12-18T10:31:16;100659.19;;;-4.04;84.89
43147;BME280;28752;48.266;7.402;2022-12-18T10:33:42;100669.63;;;-4.11;84.62
43147;BME280;28752;48.266;7.402;2022-12-18T10:36:07;100664.22;;;-3.95;84.70
43147;BME280;28752;48.266;7.402;2022-12-18T10:38:34;100645.84;;;-3.80;83.79
43147;BME280;28752;48.266;7.402;2022-12-18T10:41:23;100659.72;;;-3.82;84.13
43147;BME280;28752;48.266;7.402;2022-12-18T10:46:44;100643.75;;;-3.58;84.08
43147;BME280;28752;48.266;7.402;2022-12-18T10:49:31;100644.31;;;-3.42;84.02
43147;BME280;28752;48.266;7.402;2022-12-18T10:52:24;100648.75;;;-3.47;83.81
43147;BME280;28752;48.266;7.402;2022-12-18T10:54:53;100625.84;;;-3.70;83.99
43147;BME280;28752;48.266;7.402;2022-12-18T10:59:53;100637.34;;;-3.86;85.31
43147;BME280;28752;48.266;7.402;2022-12-18T11:02:36;100626.25;;;-3.93;85.17
43147;BME280;28752;48.266;7.402;2022-12-18T11:05:22;100630.31;;;-3.80;84.93
43147;BME280;28752;48.266;7.402;2022-12-18T11:07:49;100638.63;;;-3.61;85.04
43147;BME280;28752;48.266;7.402;2022-12-18T11:10:21;100629.94;;;-3.57;85.09
43147;BME280;28752;48.266;7.402;2022-12-18T11:12:47;100618.81;;;-3.63;84.69
43147;BME280;28752;48.266;7.402;2022-12-18T11:15:23;100637.22;;;-3.29;83.75
43147;BME280;28752;48.266;7.402;2022-12-18T11:17:50;100639.13;;;-3.38;83.43
43147;BME280;28752;48.266;7.402;2022-12-18T11:20:31;100642.31;;;-3.26;83.88
43147;BME280;28752;48.266;7.402;2022-12-18T11:23:01;100636.22;;;-3.22;83.18
43147;BME280;28752;48.266;7.402;2022-12-18T11:25:28;100625.47;;;-3.01;82.43
43147;BME280;28752;48.266;7.402;2022-12-18T11:28:03;100634.41;;;-3.18;82.77
43147;BME280;28752;48.266;7.402;2022-12-18T11:30:31;100614.28;;;-3.04;82.53
43147;BME280;28752;48.266;7.402;2022-12-18T11:35:39;100632.25;;;-2.94;82.56
43147;BME280;28752;48.266;7.402;2022-12-18T11:41:27;100622.41;;;-2.78;81.46
43147;BME280;28752;48.266;7.402;2022-12-18T11:44:17;100616.84;;;-3.02;82.25
43147;BME280;28752;48.266;7.402;2022-12-18T11:47:22;100605.81;;;-2.70;81.50
43147;BME280;28752;48.266;7.402;2022-12-18T11:49:51;100589.56;;;-2.78;81.42
43147;BME280;28752;48.266;7.402;2022-12-18T11:52:41;100605.84;;;-2.71;81.77
43147;BME280;28752;48.266;7.402;2022-12-18T11:55:17;100609.28;;;-2.72;82.72
43147;BME280;28752;48.266;7.402;2022-12-18T11:58:05;100599.22;;;-2.86;83.00
43147;BME280;28752;48.266;7.402;2022-12-18T12:00:39;100597.56;;;-2.90;83.12
43147;BME280;28752;48.266;7.402;2022-12-18T12:03:27;100600.03;;;-2.84;83.77
43147;BME280;28752;48.266;7.402;2022-12-18T12:06:16;100578.56;;;-2.89;83.04
43147;BME280;28752;48.266;7.402;2022-12-18T12:17:37;100559.47;;;-2.85;83.16
43147;BME280;28752;48.266;7.402;2022-12-18T12:25:37;100587.44;;;-2.60;82.00
43147;BME280;28752;48.266;7.402;2022-12-18T12:34:01;100589.13;;;-2.58;82.30
43147;BME280;28752;48.266;7.402;2022-12-18T12:39:26;100580.34;;;-2.52;82.97
43147;BME280;28752;48.266;7.402;2022-12-18T12:41:54;100587.00;;;-2.40;82.94
43147;BME280;28752;48.266;7.402;2022-12-18T12:44:47;100586.25;;;-2.45;82.85
43147;BME280;28752;48.266;7.402;2022-12-18T12:47:25;100591.22;;;-2.36;82.01
43147;BME280;28752;48.266;7.402;2022-12-18T12:49:53;100588.53;;;-2.32;82.32
43147;BME280;28752;48.266;7.402;2022-12-18T12:52:31;100585.44;;;-2.47;82.30
43147;BME280;28752;48.266;7.402;2022-12-18T12:54:58;100577.38;;;-2.74;82.55
43147;BME280;28752;48.266;7.402;2022-12-18T12:57:34;100577.91;;;-2.60;82.57
43147;BME280;28752;48.266;7.402;2022-12-18T13:00:12;100568.31;;;-2.55;82.61
43147;BME280;28752;48.266;7.402;2022-12-18T13:02:50;100572.16;;;-2.34;81.85
43147;BME280;28752;48.266;7.402;2022-12-18T13:05:34;100568.56;;;-2.29;81.18
43147;BME280;28752;48.266;7.402;2022-12-18T13:08:04;100574.50;;;-2.23;80.51
43147;BME280;28752;48.266;7.402;2022-12-18T13:10:39;100565.09;;;-2.28;80.50
43147;BME280;28752;48.266;7.402;2022-12-18T13:15:47;100561.63;;;-2.27;80.58
43147;BME280;28752;48.266;7.402;2022-12-18T13:25:49;100557.88;;;-2.52;81.71
43147;BME280;28752;48.266;7.402;2022-12-18T13:28:18;100548.69;;;-2.66;82.00
43147;BME280;28752;48.266;7.402;2022-12-18T13:30:49;100555.56;;;-2.64;82.81
43147;BME280;28752;48.266;7.402;2022-12-18T13:38:37;100561.59;;;-2.63;83.21
43147;BME280;28752;48.266;7.402;2022-12-18T13:43:54;100551.00;;;-2.93;84.99
43147;BME280;28752;48.266;7.402;2022-12-18T13:49:01;100547.34;;;-2.84;84.46
43147;BME280;28752;48.266;7.402;2022-12-18T13:51:28;100532.84;;;-2.93;85.01
43147;BME280;28752;48.266;7.402;2022-12-18T13:56:50;100538.66;;;-2.82;85.46
43147;BME280;28752;48.266;7.402;2022-12-18T13:59:20;100548.09;;;-2.78;85.23
43147;BME280;28752;48.266;7.402;2022-12-18T14:04:26;100540.31;;;-2.79;85.89
43147;BME280;28752;48.266;7.402;2022-12-18T14:06:55;100544.09;;;-2.93;86.49
43147;BME280;28752;48.266;7.402;2022-12-18T14:09:28;100539.25;;;-3.10;87.17
43147;BME280;28752;48.266;7.402;2022-12-18T14:11:55;100544.22;;;-2.99;87.24
43147;BME280;28752;48.266;7.402;2022-12-18T14:14:49;100545.34;;;-3.12;87.34
43147;BME280;28752;48.266;7.402;2022-12-18T14:17:15;100537.66;;;-3.15;87.57
43147;BME280;28752;48.266;7.402;2022-12-18T14:19:47;100546.28;;;-3.16;87.96
43147;BME280;28752;48.266;7.402;2022-12-18T14:22:19;100531.09;;;-3.33;88.02
43147;BME280;28752;48.266;7.402;2022-12-18T14:24:45;100545.72;;;-3.31;88.67
43147;BME280;28752;48.266;7.402;2022-12-18T14:27:23;100545.13;;;-3.45;89.42
43147;BME280;28752;48.266;7.402;2022-12-18T14:29:49;100549.53;;;-3.49;89.96
43147;BME280;28752;48.266;7.402;2022-12-18T14:32:19;100535.66;;;-3.46;89.62